createdAt,value
2019-02-18T00:00:29.688Z,5.00
2019-02-18T00:02:58.165Z,5.00
2019-02-18T00:05:26.553Z,5.00
2019-02-18T00:07:54.946Z,5.00
2019-02-18T00:10:23.356Z,4.90
2019-02-18T00:12:53.261Z,4.80
2019-02-18T00:15:21.676Z,4.70
2019-02-18T00:17:50.060Z,4.70
2019-02-18T00:20:18.455Z,4.70
2019-02-18T00:22:46.854Z,4.60
2019-02-18T00:25:15.254Z,4.60
2019-02-18T00:27:43.641Z,4.60
2019-02-18T00:30:12.024Z,4.50
2019-02-18T00:32:40.421Z,4.50
2019-02-18T00:35:08.809Z,4.50
2019-02-18T00:37:37.223Z,4.40
2019-02-18T00:40:08.759Z,4.40
2019-02-18T00:42:37.183Z,4.20
2019-02-18T00:45:08.661Z,4.20
2019-02-18T00:47:37.062Z,4.10
2019-02-18T00:50:07.996Z,3.90
2019-02-18T00:52:36.386Z,3.80
2019-02-18T00:55:06.564Z,3.70
2019-02-18T00:57:34.962Z,3.70
2019-02-18T01:00:05.848Z,3.70
2019-02-18T01:02:34.241Z,3.80
2019-02-18T01:05:02.760Z,3.90
2019-02-18T01:07:34.719Z,3.90
2019-02-18T01:10:01.360Z,4.00
2019-02-18T01:12:29.809Z,4.10
2019-02-18T01:14:58.209Z,4.20
2019-02-18T01:17:26.598Z,4.20
2019-02-18T01:19:54.976Z,4.30
2019-02-18T01:22:23.364Z,4.30
2019-02-18T01:24:51.761Z,4.50
2019-02-18T01:27:20.161Z,4.50
2019-02-18T01:29:48.553Z,4.60
2019-02-18T01:32:16.949Z,4.50
2019-02-18T01:34:45.329Z,4.50
2019-02-18T01:37:13.720Z,4.30
2019-02-18T01:39:42.108Z,4.20
2019-02-18T01:42:10.757Z,4.30
2019-02-18T01:44:39.140Z,4.30
2019-02-18T01:47:07.520Z,4.30
2019-02-18T01:49:36.024Z,4.30
2019-02-18T01:52:04.480Z,4.30
2019-02-18T01:54:32.877Z,4.10
2019-02-18T01:57:01.261Z,3.90
2019-02-18T01:59:29.657Z,3.80
2019-02-18T02:01:58.060Z,3.80
2019-02-18T02:04:26.521Z,3.70
2019-02-18T02:06:54.909Z,3.80
2019-02-18T02:09:23.372Z,3.80
2019-02-18T02:11:51.757Z,3.80
2019-02-18T02:14:20.148Z,3.80
2019-02-18T02:16:48.542Z,3.80
2019-02-18T02:19:16.924Z,3.80
2019-02-18T02:21:45.316Z,3.80
2019-02-18T02:24:13.705Z,3.80
2019-02-18T02:26:42.084Z,3.90
2019-02-18T02:29:10.476Z,3.90
2019-02-18T02:31:38.865Z,3.90
2019-02-18T02:34:07.256Z,3.90
2019-02-18T02:36:35.636Z,3.80
2019-02-18T02:39:05.974Z,3.80
2019-02-18T02:41:34.348Z,3.80
2019-02-18T02:44:02.736Z,3.70
2019-02-18T02:46:31.116Z,3.70
2019-02-18T02:48:59.503Z,3.70
2019-02-18T02:51:27.894Z,3.60
2019-02-18T02:53:56.270Z,3.60
2019-02-18T02:56:24.690Z,3.50
2019-02-18T02:58:53.069Z,3.50
2019-02-18T03:01:21.457Z,3.40
2019-02-18T03:03:49.848Z,3.40
2019-02-18T03:06:18.248Z,3.40
2019-02-18T03:08:46.634Z,3.40
2019-02-18T03:11:15.026Z,3.40
2019-02-18T03:13:43.428Z,3.30
2019-02-18T03:16:11.800Z,3.30
2019-02-18T03:18:40.200Z,3.40
2019-02-18T03:21:08.580Z,3.30
2019-02-18T03:23:36.984Z,3.30
2019-02-18T03:26:05.365Z,3.40
2019-02-18T03:28:51.218Z,3.30
2019-02-18T03:31:24.986Z,3.30
2019-02-18T03:34:11.549Z,3.30
2019-02-18T03:36:39.934Z,3.40
2019-02-18T03:39:08.396Z,3.40
2019-02-18T03:41:36.866Z,3.30
2019-02-18T03:44:05.248Z,3.30
2019-02-18T03:46:33.644Z,3.30
2019-02-18T03:49:02.022Z,3.40
2019-02-18T03:51:30.409Z,3.50
2019-02-18T03:53:58.796Z,3.50
2019-02-18T03:56:27.202Z,3.50
2019-02-18T03:58:55.657Z,3.60
2019-02-18T04:01:24.126Z,3.70
2019-02-18T04:03:52.518Z,3.80
2019-02-18T04:06:20.908Z,3.70
2019-02-18T04:08:49.343Z,3.70
2019-02-18T04:11:17.733Z,3.60
2019-02-18T04:13:46.119Z,3.50
2019-02-18T04:16:14.504Z,3.50
2019-02-18T04:18:42.898Z,3.40
2019-02-18T04:21:11.408Z,3.30
2019-02-18T04:23:39.849Z,3.30
2019-02-18T04:26:08.236Z,3.30
2019-02-18T04:28:36.652Z,3.40
2019-02-18T04:31:05.277Z,3.30
2019-02-18T04:33:33.669Z,3.30
2019-02-18T04:36:02.068Z,3.30
2019-02-18T04:38:30.453Z,3.30
2019-02-18T04:40:58.841Z,3.30
2019-02-18T04:43:27.228Z,3.30
2019-02-18T04:45:55.704Z,3.30
2019-02-18T04:48:24.115Z,3.30
2019-02-18T04:50:52.504Z,3.20
2019-02-18T04:53:20.912Z,3.30
2019-02-18T04:55:49.314Z,3.30
2019-02-18T04:58:17.828Z,3.20
2019-02-18T05:00:46.270Z,2.90
2019-02-18T05:03:14.648Z,2.80
2019-02-18T05:05:43.065Z,2.70
2019-02-18T05:08:11.699Z,2.70
2019-02-18T05:10:40.085Z,2.80
2019-02-18T05:13:08.477Z,2.90
2019-02-18T05:15:36.885Z,2.80
2019-02-18T05:18:05.361Z,2.80
2019-02-18T05:20:33.800Z,2.80
2019-02-18T05:23:02.211Z,2.70
2019-02-18T05:25:30.590Z,2.70
2019-02-18T05:27:58.982Z,2.60
2019-02-18T05:30:29.470Z,2.60
2019-02-18T05:32:57.718Z,2.50
2019-02-18T05:35:26.114Z,2.40
2019-02-18T05:37:54.492Z,2.40
2019-02-18T05:40:22.885Z,2.30
2019-02-18T05:42:51.270Z,2.30
2019-02-18T05:45:19.679Z,2.30
2019-02-18T05:47:48.077Z,2.20
2019-02-18T05:50:16.454Z,2.00
2019-02-18T05:52:44.853Z,1.90
2019-02-18T05:55:13.318Z,1.60
2019-02-18T05:57:41.725Z,1.50
2019-02-18T06:00:12.447Z,1.40
2019-02-18T06:02:40.825Z,1.40
2019-02-18T06:05:09.223Z,1.30
2019-02-18T06:07:37.608Z,1.30
2019-02-18T06:10:08.410Z,1.30
2019-02-18T06:12:36.812Z,1.30
2019-02-18T06:15:08.615Z,1.30
2019-02-18T06:17:36.984Z,1.20
2019-02-18T06:20:08.448Z,1.20
2019-02-18T06:22:38.609Z,1.20
2019-02-18T06:25:07.371Z,1.30
2019-02-18T06:27:35.813Z,1.30
2019-02-18T06:30:06.802Z,1.10
2019-02-18T06:32:35.198Z,1.00
2019-02-18T06:35:03.656Z,0.90
2019-02-18T06:37:32.060Z,0.90
2019-02-18T06:40:00.523Z,1.00
2019-02-18T06:42:28.939Z,0.90
2019-02-18T06:44:58.965Z,0.80
2019-02-18T06:47:27.431Z,0.80
2019-02-18T06:49:55.838Z,0.90
2019-02-18T06:52:24.231Z,0.90
2019-02-18T06:54:52.622Z,0.90
2019-02-18T06:59:59.648Z,1.10
2019-02-18T07:02:29.694Z,1.00
2019-02-18T07:05:17.926Z,1.10
2019-02-18T07:07:47.964Z,1.10
2019-02-18T07:10:26.869Z,1.20
2019-02-18T07:12:55.294Z,1.20
2019-02-18T07:15:23.679Z,1.30
2019-02-18T07:17:52.080Z,1.40
2019-02-18T07:20:20.465Z,1.50
2019-02-18T07:22:48.852Z,1.60
2019-02-18T07:25:17.252Z,1.70
2019-02-18T07:27:45.716Z,1.90
2019-02-18T07:30:14.228Z,1.90
2019-02-18T07:32:42.632Z,1.90
2019-02-18T07:35:11.021Z,1.90
2019-02-18T07:37:39.424Z,2.00
2019-02-18T07:40:10.450Z,2.00
2019-02-18T07:42:38.835Z,2.00
2019-02-18T07:45:10.349Z,2.00
2019-02-18T07:47:38.780Z,2.10
2019-02-18T07:50:19.942Z,2.30
2019-02-18T07:52:40.135Z,2.30
2019-02-18T07:55:09.418Z,2.40
2019-02-18T07:57:37.814Z,2.50
2019-02-18T08:00:11.984Z,2.60
2019-02-18T08:02:40.374Z,2.70
2019-02-18T08:05:08.841Z,2.80
2019-02-18T08:07:37.308Z,2.80
2019-02-18T08:10:12.525Z,2.90
2019-02-18T08:12:41.560Z,3.00
2019-02-18T08:15:11.297Z,3.20
2019-02-18T08:17:39.680Z,3.30
2019-02-18T08:20:10.273Z,3.50
2019-02-18T08:22:38.761Z,3.50
2019-02-18T08:25:12.571Z,3.60
2019-02-18T08:27:40.952Z,3.70
2019-02-18T08:30:12.752Z,3.90
2019-02-18T08:32:41.140Z,4.10
2019-02-18T08:35:09.774Z,4.40
2019-02-18T08:37:38.337Z,4.50
2019-02-18T08:40:09.731Z,4.70
2019-02-18T08:42:38.120Z,4.80
2019-02-18T08:45:09.585Z,4.90
2019-02-18T08:47:37.978Z,5.00
2019-02-18T08:50:09.769Z,5.10
2019-02-18T08:52:38.172Z,5.30
2019-02-18T08:55:09.637Z,5.40
2019-02-18T08:57:38.020Z,5.60
2019-02-18T09:00:15.381Z,5.70
2019-02-18T09:02:43.776Z,5.90
2019-02-18T09:05:12.376Z,6.10
2019-02-18T09:07:41.363Z,6.30
2019-02-18T09:10:33.694Z,6.40
2019-02-18T09:12:59.266Z,6.50
2019-02-18T09:15:27.663Z,6.70
2019-02-18T09:17:56.059Z,6.90
2019-02-18T09:20:25.590Z,7.00
2019-02-18T09:22:55.845Z,7.10
2019-02-18T09:25:34.942Z,7.20
2019-02-18T09:28:03.341Z,7.30
2019-02-18T09:30:33.373Z,7.50
2019-02-18T09:33:01.808Z,7.60
2019-02-18T09:35:49.545Z,7.70
2019-02-18T09:38:24.896Z,7.80
2019-02-18T09:40:51.360Z,8.00
2019-02-18T09:43:18.231Z,8.10
2019-02-18T09:45:46.616Z,8.30
2019-02-18T09:48:15.013Z,8.40
2019-02-18T09:50:43.406Z,8.50
2019-02-18T09:53:11.798Z,8.70
2019-02-18T09:55:40.271Z,8.90
2019-02-18T09:58:08.641Z,9.70
2019-02-18T10:00:37.033Z,11.10
2019-02-18T10:03:05.433Z,12.00
2019-02-18T10:05:33.842Z,13.10
2019-02-18T10:08:02.229Z,14.40
2019-02-18T10:10:30.633Z,15.30
2019-02-18T10:12:59.719Z,16.30
2019-02-18T10:15:28.830Z,17.10
2019-02-18T10:17:57.217Z,17.50
2019-02-18T10:20:25.600Z,17.80
2019-02-18T10:22:54.012Z,16.80
2019-02-18T10:25:22.428Z,17.10
2019-02-18T10:27:50.804Z,16.90
2019-02-18T10:30:20.747Z,17.00
2019-02-18T10:32:49.341Z,17.10
2019-02-18T10:35:17.741Z,17.40
2019-02-18T10:37:54.898Z,17.30
2019-02-18T10:40:16.349Z,18.20
2019-02-18T10:42:44.755Z,18.90
2019-02-18T10:45:13.908Z,19.50
2019-02-18T10:47:42.316Z,19.60
2019-02-18T10:50:12.637Z,19.60
2019-02-18T10:52:41.038Z,19.80
2019-02-18T10:55:11.944Z,19.80
2019-02-18T10:57:40.624Z,20.30
2019-02-18T11:00:12.106Z,20.00
2019-02-18T11:02:40.581Z,19.40
2019-02-18T11:05:09.601Z,19.80
2019-02-18T11:07:38.074Z,19.50
2019-02-18T11:10:09.549Z,19.30
2019-02-18T11:12:37.957Z,19.80
2019-02-18T11:15:09.772Z,20.10
2019-02-18T11:17:39.178Z,20.80
2019-02-18T11:20:10.480Z,20.90
2019-02-18T11:22:38.882Z,21.20
2019-02-18T11:25:10.371Z,20.90
2019-02-18T11:27:38.769Z,20.70
2019-02-18T11:30:12.857Z,20.80
2019-02-18T11:32:41.313Z,20.60
2019-02-18T11:35:10.548Z,20.30
2019-02-18T11:37:38.964Z,20.20
2019-02-18T11:40:18.538Z,20.10
2019-02-18T11:42:47.007Z,20.20
2019-02-18T11:45:17.239Z,20.10
2019-02-18T11:47:45.636Z,20.10
2019-02-18T11:50:16.166Z,20.50
2019-02-18T11:52:44.645Z,20.70
2019-02-18T11:55:14.876Z,20.60
2019-02-18T11:57:45.125Z,20.50
2019-02-18T12:00:17.988Z,20.90
2019-02-18T12:02:46.425Z,20.80
2019-02-18T12:05:14.890Z,20.80
2019-02-18T12:07:43.360Z,20.80
2019-02-18T12:10:14.092Z,21.00
2019-02-18T12:12:42.785Z,21.20
2019-02-18T12:15:14.186Z,22.30
2019-02-18T12:17:42.651Z,22.40
2019-02-18T12:20:14.139Z,22.80
2019-02-18T12:22:42.608Z,23.00
2019-02-18T12:25:13.578Z,23.80
2019-02-18T12:27:42.370Z,23.40
2019-02-18T12:30:16.029Z,23.10
2019-02-18T12:32:44.500Z,22.90
2019-02-18T12:35:13.869Z,22.20
2019-02-18T12:37:42.336Z,22.00
2019-02-18T12:40:16.511Z,22.00
2019-02-18T12:42:44.905Z,22.60
2019-02-18T12:45:14.283Z,22.80
2019-02-18T12:47:42.886Z,23.10
2019-02-18T12:50:13.583Z,22.50
2019-02-18T12:52:41.986Z,22.60
2019-02-18T12:55:12.116Z,22.70
2019-02-18T12:57:40.612Z,22.90
2019-02-18T13:00:14.965Z,23.40
2019-02-18T13:02:45.132Z,24.00
2019-02-18T13:05:14.373Z,24.50
2019-02-18T13:07:42.869Z,25.50
2019-02-18T13:10:13.251Z,26.60
2019-02-18T13:12:42.031Z,27.00
2019-02-18T13:15:18.244Z,26.70
2019-02-18T13:17:46.694Z,26.20
2019-02-18T13:20:15.088Z,25.80
2019-02-18T13:22:43.633Z,25.80
2019-02-18T13:25:12.862Z,25.90
2019-02-18T13:27:41.253Z,26.00
2019-02-18T13:30:21.726Z,25.90
2019-02-18T13:32:50.109Z,26.20
2019-02-18T13:35:18.499Z,25.70
2019-02-18T13:37:46.895Z,25.30
2019-02-18T13:40:16.848Z,24.60
2019-02-18T13:42:45.684Z,24.30
2019-02-18T13:45:14.845Z,24.60
2019-02-18T13:47:43.233Z,24.50
2019-02-18T13:50:13.865Z,24.50
2019-02-18T13:52:42.252Z,25.20
2019-02-18T13:55:13.082Z,25.60
2019-02-18T13:57:41.904Z,25.40
2019-02-18T14:00:21.108Z,25.50
2019-02-18T14:02:50.585Z,25.90
2019-02-18T14:05:21.810Z,26.00
2019-02-18T14:07:50.289Z,25.10
2019-02-18T14:10:20.900Z,24.00
2019-02-18T14:12:49.368Z,22.50
2019-02-18T14:15:19.343Z,21.90
2019-02-18T14:17:47.810Z,21.50
2019-02-18T14:20:17.813Z,20.90
2019-02-18T14:22:46.282Z,20.60
2019-02-18T14:25:15.630Z,20.40
2019-02-18T14:27:44.036Z,20.30
2019-02-18T14:30:17.496Z,20.20
2019-02-18T14:32:45.882Z,20.90
2019-02-18T14:35:16.917Z,21.60
2019-02-18T14:37:46.959Z,22.30
2019-02-18T14:40:20.650Z,22.50
2019-02-18T14:42:49.033Z,22.60
2019-02-18T14:45:17.561Z,23.20
2019-02-18T14:47:46.033Z,23.90
2019-02-18T14:50:17.511Z,24.00
2019-02-18T14:52:46.799Z,23.10
2019-02-18T14:55:15.418Z,22.40
2019-02-18T14:57:43.820Z,22.00
2019-02-18T15:00:20.562Z,21.90
2019-02-18T15:02:51.392Z,22.20
2019-02-18T15:05:19.933Z,22.90
2019-02-18T15:07:48.326Z,23.80
2019-02-18T15:10:16.797Z,24.40
2019-02-18T15:12:45.192Z,23.50
2019-02-18T15:15:13.737Z,23.40
2019-02-18T15:17:42.140Z,23.30
2019-02-18T15:20:11.604Z,23.50
2019-02-18T15:22:40.858Z,23.60
2019-02-18T15:25:11.553Z,22.90
2019-02-18T15:27:39.954Z,22.20
2019-02-18T15:30:14.204Z,22.30
2019-02-18T15:32:42.584Z,22.80
2019-02-18T15:35:11.052Z,23.30
2019-02-18T15:37:39.448Z,23.80
2019-02-18T15:40:12.520Z,24.00
2019-02-18T15:42:42.541Z,23.90
2019-02-18T15:45:11.105Z,23.50
2019-02-18T15:47:39.637Z,23.30
2019-02-18T15:50:13.148Z,22.90
2019-02-18T15:52:41.544Z,22.70
2019-02-18T15:55:11.577Z,22.30
2019-02-18T15:57:39.997Z,21.70
2019-02-18T16:00:17.148Z,20.80
2019-02-18T16:02:46.417Z,19.70
2019-02-18T16:05:14.806Z,18.50
2019-02-18T16:07:43.193Z,17.50
2019-02-18T16:10:11.598Z,16.90
2019-02-18T16:12:39.997Z,16.40
2019-02-18T16:15:11.336Z,16.00
2019-02-18T16:17:39.728Z,15.70
2019-02-18T16:20:13.573Z,15.60
2019-02-18T16:22:42.033Z,15.30
2019-02-18T16:25:16.697Z,15.00
2019-02-18T16:27:45.094Z,14.70
2019-02-18T16:30:15.864Z,14.20
2019-02-18T16:32:44.604Z,13.80
2019-02-18T16:35:13.125Z,13.60
2019-02-18T16:37:42.381Z,13.40
2019-02-18T16:40:13.862Z,13.30
2019-02-18T16:42:42.262Z,13.20
2019-02-18T16:45:15.132Z,13.00
2019-02-18T16:47:43.559Z,12.80
2019-02-18T16:50:13.157Z,12.60
2019-02-18T16:52:41.614Z,12.50
2019-02-18T16:55:12.332Z,12.40
2019-02-18T16:57:40.731Z,12.30
2019-02-18T17:00:17.308Z,12.20
2019-02-18T17:02:45.705Z,12.00
2019-02-18T17:05:14.126Z,11.90
2019-02-18T17:07:42.581Z,11.80
2019-02-18T17:10:11.035Z,11.70
2019-02-18T17:12:39.444Z,11.60
2019-02-18T17:15:11.257Z,11.50
2019-02-18T17:17:39.652Z,11.40
2019-02-18T17:20:09.088Z,11.30
2019-02-18T17:22:37.484Z,11.20
2019-02-18T17:25:08.975Z,11.20
2019-02-18T17:27:37.365Z,11.10
2019-02-18T17:30:15.441Z,11.10
2019-02-18T17:32:43.846Z,10.90
2019-02-18T17:35:15.681Z,10.80
2019-02-18T17:37:44.078Z,10.80
2019-02-18T17:40:14.609Z,10.80
2019-02-18T17:42:43.878Z,10.80
2019-02-18T17:45:15.205Z,10.70
2019-02-18T17:47:43.592Z,10.70
2019-02-18T17:50:14.930Z,10.60
2019-02-18T17:52:43.320Z,10.50
2019-02-18T17:55:14.253Z,10.40
2019-02-18T17:57:42.905Z,10.40
2019-02-18T18:00:14.381Z,10.20
2019-02-18T18:02:42.777Z,10.20
2019-02-18T18:05:11.318Z,10.10
2019-02-18T18:07:39.709Z,10.10
2019-02-18T18:10:13.088Z,10.00
2019-02-18T18:12:41.485Z,10.00
2019-02-18T18:15:16.166Z,9.90
2019-02-18T18:17:44.625Z,9.90
2019-02-18T18:20:15.057Z,9.80
2019-02-18T18:22:43.444Z,9.70
2019-02-18T18:25:14.620Z,9.70
2019-02-18T18:27:43.005Z,9.50
2019-02-18T18:30:19.476Z,9.50
2019-02-18T18:32:47.865Z,9.40
2019-02-18T18:35:16.264Z,9.50
2019-02-18T18:37:44.658Z,9.60
2019-02-18T18:40:16.916Z,9.60
2019-02-18T18:42:45.369Z,9.50
2019-02-18T18:45:18.270Z,9.50
2019-02-18T18:47:46.670Z,9.50
2019-02-18T18:50:18.177Z,9.40
2019-02-18T18:52:46.841Z,9.40
2019-02-18T18:55:15.233Z,9.50
2019-02-18T18:57:43.712Z,9.40
2019-02-18T19:00:19.949Z,9.30
2019-02-18T19:02:48.349Z,9.20
2019-02-18T19:05:16.734Z,9.10
2019-02-18T19:07:45.125Z,9.10
2019-02-18T19:10:13.522Z,9.20
2019-02-18T19:12:41.912Z,9.20
2019-02-18T19:15:15.393Z,9.30
2019-02-18T19:17:43.787Z,9.30
2019-02-18T19:20:13.213Z,9.20
2019-02-18T19:22:41.694Z,9.10
2019-02-18T19:25:12.712Z,9.10
2019-02-18T19:27:41.172Z,9.10
2019-02-18T19:30:15.173Z,9.10
2019-02-18T19:32:43.552Z,9.10
2019-02-18T19:35:11.952Z,9.00
2019-02-18T19:37:40.392Z,9.00
2019-02-18T19:40:11.702Z,9.00
2019-02-18T19:42:40.157Z,9.00
2019-02-18T19:45:20.621Z,9.00
2019-02-18T19:47:49.009Z,8.90
2019-02-18T19:50:18.279Z,8.90
2019-02-18T19:52:47.265Z,8.80
2019-02-18T19:55:15.661Z,8.80
2019-02-18T19:57:44.053Z,8.70
2019-02-18T20:00:18.436Z,8.70
2019-02-18T20:02:46.893Z,8.70
2019-02-18T20:05:15.297Z,8.60
2019-02-18T20:07:44.320Z,8.60
2019-02-18T20:10:13.929Z,8.60
2019-02-18T20:12:42.333Z,8.60
2019-02-18T20:15:16.313Z,8.70
2019-02-18T20:17:44.732Z,8.70
2019-02-18T20:20:15.753Z,8.70
2019-02-18T20:22:44.148Z,8.80
2019-02-18T20:25:12.689Z,8.70
2019-02-18T20:27:41.071Z,8.80
2019-02-18T20:30:17.019Z,8.70
2019-02-18T20:32:45.444Z,8.70
2019-02-18T20:35:13.925Z,8.70
2019-02-18T20:37:42.344Z,8.60
2019-02-18T20:40:11.966Z,8.60
2019-02-18T20:42:40.801Z,8.50
2019-02-18T20:45:12.018Z,8.60
2019-02-18T20:47:40.407Z,8.50
2019-02-18T20:50:11.725Z,8.40
2019-02-18T20:52:40.125Z,8.40
2019-02-18T20:55:11.587Z,8.30
2019-02-18T20:57:39.985Z,8.30
2019-02-18T21:00:13.405Z,8.30
2019-02-18T21:02:41.798Z,8.30
2019-02-18T21:05:10.256Z,8.40
2019-02-18T21:07:38.721Z,8.40
2019-02-18T21:10:15.577Z,8.40
2019-02-18T21:12:43.960Z,8.30
2019-02-18T21:15:12.481Z,8.30
2019-02-18T21:17:40.868Z,8.20
2019-02-18T21:20:12.480Z,8.20
2019-02-18T21:22:40.947Z,8.20
2019-02-18T21:25:10.753Z,8.20
2019-02-18T21:27:39.156Z,8.20
2019-02-18T21:30:13.281Z,8.30
2019-02-18T21:32:41.673Z,8.20
2019-02-18T21:35:10.155Z,8.20
2019-02-18T21:37:38.596Z,8.20
2019-02-18T21:40:10.053Z,8.10
2019-02-18T21:42:38.460Z,8.20
2019-02-18T21:45:12.920Z,8.20
2019-02-18T21:47:53.437Z,8.20
2019-02-18T21:50:22.104Z,8.20
2019-02-18T21:52:50.493Z,8.20
2019-02-18T21:55:18.897Z,8.30
2019-02-18T21:57:47.268Z,8.40
2019-02-18T22:00:20.147Z,8.40
2019-02-18T22:02:48.592Z,8.40
2019-02-18T22:05:17.854Z,8.40
2019-02-18T22:07:46.249Z,8.40
2019-02-18T22:10:15.572Z,8.40
2019-02-18T22:12:43.953Z,8.40
2019-02-18T22:15:15.073Z,8.50
2019-02-18T22:17:43.465Z,8.40
2019-02-18T22:20:14.364Z,8.40
2019-02-18T22:22:42.761Z,8.40
2019-02-18T22:25:13.286Z,8.30
2019-02-18T22:27:41.669Z,8.20
2019-02-18T22:30:15.680Z,8.20
2019-02-18T22:32:44.162Z,8.20
2019-02-18T22:35:14.189Z,8.20
2019-02-18T22:37:42.574Z,8.20
2019-02-18T22:40:13.496Z,8.10
2019-02-18T22:42:41.874Z,8.10
2019-02-18T22:45:12.399Z,8.10
2019-02-18T22:47:40.806Z,8.10
2019-02-18T22:50:11.905Z,8.10
2019-02-18T22:52:40.529Z,8.20
2019-02-18T22:55:10.584Z,8.20
2019-02-18T22:57:39.891Z,8.20
2019-02-18T23:00:29.780Z,8.20
2019-02-18T23:02:58.953Z,8.20
2019-02-18T23:05:27.416Z,8.10
2019-02-18T23:07:55.812Z,8.10
2019-02-18T23:10:24.216Z,8.00
2019-02-18T23:12:52.609Z,8.00
2019-02-18T23:15:21.000Z,7.90
2019-02-18T23:17:49.384Z,7.90
2019-02-18T23:20:18.027Z,8.00
2019-02-18T23:22:46.409Z,8.00
2019-02-18T23:25:14.788Z,8.10
2019-02-18T23:27:43.186Z,8.10
2019-02-18T23:30:11.638Z,8.10
2019-02-18T23:32:40.032Z,8.10
2019-02-18T23:35:08.430Z,8.20
2019-02-18T23:37:36.814Z,8.40
2019-02-18T23:40:06.453Z,8.40
2019-02-18T23:42:34.837Z,8.40
2019-02-18T23:45:03.303Z,8.40
2019-02-18T23:47:31.697Z,8.30
2019-02-18T23:50:00.207Z,8.30
2019-02-18T23:52:29.137Z,8.30
2019-02-18T23:54:57.526Z,8.30
2019-02-18T23:57:25.920Z,8.30
2019-02-18T23:59:54.334Z,8.40
